createdAt,value
2018-10-15T00:01:25.766Z,24.00
2018-10-15T00:03:51.774Z,23.99
2018-10-15T00:06:17.745Z,23.96
2018-10-15T00:08:43.747Z,23.85
2018-10-15T00:11:09.732Z,23.70
2018-10-15T00:13:35.715Z,23.76
2018-10-15T00:16:01.658Z,23.81
2018-10-15T00:18:27.625Z,23.79
2018-10-15T00:20:53.555Z,23.86
2018-10-15T00:23:19.521Z,23.84
2018-10-15T00:25:45.495Z,23.89
2018-10-15T00:28:11.440Z,23.89
2018-10-15T00:30:37.444Z,23.92
2018-10-15T00:33:03.428Z,23.88
2018-10-15T00:35:29.381Z,23.87
2018-10-15T00:37:55.363Z,23.83
2018-10-15T00:40:21.327Z,23.84
2018-10-15T00:42:47.332Z,23.91
2018-10-15T00:45:13.300Z,24.04
2018-10-15T00:47:39.296Z,24.04
2018-10-15T00:50:05.271Z,24.04
2018-10-15T00:52:31.239Z,24.07
2018-10-15T00:54:57.213Z,23.99
2018-10-15T00:57:23.158Z,23.92
2018-10-15T00:59:49.112Z,23.86
2018-10-15T01:02:15.068Z,23.84
2018-10-15T01:04:41.026Z,23.71
2018-10-15T01:07:07.048Z,23.58
2018-10-15T01:09:33.045Z,23.44
2018-10-15T01:11:59.002Z,23.41
2018-10-15T01:14:25.010Z,23.31
2018-10-15T01:16:50.994Z,23.40
2018-10-15T01:19:17.067Z,23.50
2018-10-15T01:21:43.109Z,23.51
2018-10-15T01:24:09.075Z,23.38
2018-10-15T01:26:35.056Z,23.29
2018-10-15T01:29:01.019Z,23.28
2018-10-15T01:31:26.984Z,23.01
2018-10-15T01:33:52.938Z,22.95
2018-10-15T01:36:18.923Z,22.93
2018-10-15T01:38:44.962Z,22.95
2018-10-15T01:41:10.962Z,22.78
2018-10-15T01:43:36.959Z,23.02
2018-10-15T01:46:02.915Z,23.04
2018-10-15T01:48:28.889Z,22.98
2018-10-15T01:50:54.875Z,22.80
2018-10-15T01:53:20.831Z,22.68
2018-10-15T01:55:46.838Z,22.69
2018-10-15T01:58:12.783Z,22.64
2018-10-15T02:00:38.775Z,22.51
2018-10-15T02:03:04.764Z,22.38
2018-10-15T02:05:30.719Z,22.50
2018-10-15T02:07:56.679Z,22.53
2018-10-15T02:10:22.654Z,22.50
2018-10-15T02:12:48.630Z,22.64
2018-10-15T02:15:14.619Z,22.74
2018-10-15T02:17:40.561Z,22.98
2018-10-15T02:20:06.551Z,23.14
2018-10-15T02:22:32.518Z,23.24
2018-10-15T02:24:58.489Z,23.18
2018-10-15T02:27:24.463Z,23.24
2018-10-15T02:29:50.427Z,23.22
2018-10-15T02:32:16.399Z,23.16
2018-10-15T02:34:42.379Z,23.28
2018-10-15T02:37:08.350Z,23.31
2018-10-15T02:39:34.301Z,23.28
2018-10-15T02:42:00.260Z,23.32
2018-10-15T02:44:26.275Z,23.19
2018-10-15T02:46:52.255Z,23.00
2018-10-15T02:49:18.251Z,23.05
2018-10-15T02:51:44.200Z,22.98
2018-10-15T02:54:10.170Z,22.87
2018-10-15T02:56:36.146Z,22.93
2018-10-15T02:59:02.086Z,22.82
2018-10-15T03:01:28.057Z,22.73
2018-10-15T03:03:54.035Z,22.65
2018-10-15T03:06:20.002Z,22.61
2018-10-15T03:08:45.992Z,22.66
2018-10-15T03:11:11.969Z,22.59
2018-10-15T03:13:37.979Z,22.69
2018-10-15T03:16:03.997Z,22.63
2018-10-15T03:18:30.028Z,22.64
2018-10-15T03:20:55.995Z,22.63
2018-10-15T03:23:21.977Z,22.55
2018-10-15T03:25:47.992Z,22.42
2018-10-15T03:28:14.975Z,22.27
2018-10-15T03:30:40.953Z,22.17
2018-10-15T03:33:06.893Z,22.10
2018-10-15T03:35:33.850Z,22.07
2018-10-15T03:37:59.824Z,22.21
2018-10-15T03:40:29.683Z,22.30
2018-10-15T03:42:55.741Z,22.33
2018-10-15T03:45:21.754Z,22.32
2018-10-15T03:47:47.740Z,22.35
2018-10-15T03:50:13.737Z,22.35
2018-10-15T03:52:39.727Z,22.44
2018-10-15T03:55:05.708Z,22.58
2018-10-15T03:57:31.724Z,22.72
2018-10-15T03:59:57.757Z,22.66
2018-10-15T04:02:23.893Z,22.77
2018-10-15T04:04:49.760Z,22.92
2018-10-15T04:07:15.739Z,22.85
2018-10-15T04:09:41.812Z,22.96
2018-10-15T04:12:07.856Z,23.05
2018-10-15T04:14:33.827Z,22.97
2018-10-15T04:16:59.787Z,22.98
2018-10-15T04:19:25.782Z,22.82
2018-10-15T04:21:51.762Z,22.78
2018-10-15T04:24:17.743Z,22.71
2018-10-15T04:26:43.713Z,22.70
2018-10-15T04:29:09.689Z,22.67
2018-10-15T04:31:35.656Z,22.77
2018-10-15T04:34:01.638Z,22.82
2018-10-15T04:36:27.590Z,22.80
2018-10-15T04:38:53.565Z,22.86
2018-10-15T04:41:19.521Z,22.83
2018-10-15T04:43:45.533Z,22.87
2018-10-15T04:46:11.498Z,22.94
2018-10-15T04:48:37.463Z,22.96
2018-10-15T04:51:03.448Z,23.00
2018-10-15T04:53:29.405Z,22.94
2018-10-15T04:55:55.380Z,22.95
2018-10-15T04:58:21.363Z,22.91
2018-10-15T05:00:47.382Z,22.84
2018-10-15T05:03:13.361Z,22.73
2018-10-15T05:05:39.322Z,22.64
2018-10-15T05:08:05.282Z,22.64
2018-10-15T05:10:31.321Z,22.65
2018-10-15T05:12:57.343Z,22.79
2018-10-15T05:15:23.471Z,22.91
2018-10-15T05:17:49.460Z,22.94
2018-10-15T05:20:15.767Z,22.99
2018-10-15T05:22:41.768Z,23.04
2018-10-15T05:25:07.774Z,23.06
2018-10-15T05:27:33.737Z,22.98
2018-10-15T05:29:59.714Z,22.83
2018-10-15T05:32:25.690Z,22.89
2018-10-15T05:34:51.720Z,22.85
2018-10-15T05:37:17.705Z,22.88
2018-10-15T05:39:43.683Z,22.92
2018-10-15T05:42:09.697Z,22.86
2018-10-15T05:44:35.629Z,22.96
2018-10-15T05:47:01.713Z,23.03
2018-10-15T05:49:27.571Z,23.11
2018-10-15T05:51:53.578Z,22.98
2018-10-15T05:54:19.610Z,22.89
2018-10-15T05:56:45.545Z,22.86
2018-10-15T05:59:11.537Z,22.86
2018-10-15T06:01:37.519Z,22.99
2018-10-15T06:04:03.517Z,23.17
2018-10-15T06:06:29.496Z,23.18
2018-10-15T06:08:55.482Z,23.17
2018-10-15T06:11:26.454Z,23.15
2018-10-15T06:13:52.420Z,23.19
2018-10-15T06:16:18.415Z,23.20
2018-10-15T06:18:49.840Z,23.21
2018-10-15T06:21:15.896Z,23.22
2018-10-15T06:23:41.885Z,23.29
2018-10-15T06:26:07.848Z,23.36
2018-10-15T06:28:34.874Z,23.57
2018-10-15T06:31:00.812Z,23.72
2018-10-15T06:33:26.814Z,23.75
2018-10-15T06:35:52.784Z,23.71
2018-10-15T06:38:18.821Z,23.54
2018-10-15T06:40:44.723Z,23.48
2018-10-15T06:43:10.668Z,23.44
2018-10-15T06:45:36.629Z,23.66
2018-10-15T06:48:02.635Z,23.82
2018-10-15T06:50:28.597Z,23.90
2018-10-15T06:52:54.577Z,23.95
2018-10-15T06:55:20.623Z,23.82
2018-10-15T07:00:18.924Z,23.35
2018-10-15T07:02:45.985Z,23.52
2018-10-15T07:05:11.972Z,23.91
2018-10-15T07:07:37.941Z,24.06
2018-10-15T07:10:03.906Z,24.32
2018-10-15T07:12:29.902Z,24.41
2018-10-15T07:14:55.859Z,24.47
2018-10-15T07:17:21.822Z,24.63
2018-10-15T07:19:47.787Z,24.81
2018-10-15T07:22:13.824Z,24.92
2018-10-15T07:24:39.769Z,24.77
2018-10-15T07:27:05.774Z,24.77
2018-10-15T07:29:31.774Z,24.80
2018-10-15T07:31:57.717Z,24.79
2018-10-15T07:34:23.791Z,24.70
2018-10-15T07:36:49.756Z,24.82
2018-10-15T07:39:15.714Z,24.90
2018-10-15T07:41:41.692Z,25.20
2018-10-15T07:44:07.702Z,25.27
2018-10-15T07:46:33.707Z,24.98
2018-10-15T07:48:59.763Z,25.08
2018-10-15T07:51:27.772Z,25.00
2018-10-15T07:53:53.782Z,24.93
2018-10-15T07:56:19.897Z,24.79
2018-10-15T07:58:45.850Z,24.68
2018-10-15T08:01:11.898Z,24.58
2018-10-15T08:03:37.847Z,24.72
2018-10-15T08:06:03.822Z,25.20
2018-10-15T08:08:29.939Z,25.23
2018-10-15T08:10:55.763Z,25.43
2018-10-15T08:13:21.715Z,25.16
2018-10-15T08:15:47.841Z,25.26
2018-10-15T08:18:13.760Z,25.25
2018-10-15T08:20:39.835Z,25.35
2018-10-15T08:23:05.776Z,25.39
2018-10-15T08:25:31.743Z,25.15
2018-10-15T08:28:01.323Z,25.05
2018-10-15T08:30:27.303Z,25.01
2018-10-15T08:32:53.260Z,25.01
2018-10-15T08:35:19.343Z,25.17
2018-10-15T08:37:45.379Z,25.17
2018-10-15T08:40:13.250Z,25.27
2018-10-15T08:42:39.358Z,25.45
2018-10-15T08:45:05.420Z,25.37
2018-10-15T08:47:31.423Z,25.49
2018-10-15T08:49:58.385Z,25.54
2018-10-15T08:52:24.407Z,25.75
2018-10-15T08:54:50.460Z,25.89
2018-10-15T08:57:16.481Z,26.00
2018-10-15T08:59:42.511Z,26.22
2018-10-15T09:02:08.523Z,26.34
2018-10-15T09:04:34.597Z,26.40
2018-10-15T09:07:00.712Z,26.32
2018-10-15T09:09:31.165Z,26.28
2018-10-15T09:11:57.020Z,26.29
2018-10-15T09:14:23.005Z,26.27
2018-10-15T09:16:49.880Z,26.43
2018-10-15T09:19:15.904Z,26.60
2018-10-15T09:21:41.919Z,26.61
2018-10-15T09:24:07.938Z,26.58
2018-10-15T09:26:33.901Z,26.60
2018-10-15T09:28:59.916Z,26.50
2018-10-15T09:31:25.940Z,26.51
2018-10-15T09:33:51.904Z,26.50
2018-10-15T09:36:17.911Z,26.50
2018-10-15T09:38:45.163Z,26.55
2018-10-15T09:41:11.100Z,26.48
2018-10-15T09:43:37.990Z,26.28
2018-10-15T09:46:04.047Z,26.21
2018-10-15T09:48:30.059Z,26.22
2018-10-15T09:50:56.986Z,26.24
2018-10-15T09:53:23.013Z,26.26
2018-10-15T09:55:48.972Z,26.20
2018-10-15T09:58:14.959Z,26.20
2018-10-15T10:00:41.033Z,26.10
2018-10-15T10:03:07.087Z,25.76
2018-10-15T10:05:33.091Z,25.63
2018-10-15T10:07:59.167Z,25.50
2018-10-15T10:10:25.115Z,25.44
2018-10-15T10:12:51.278Z,25.45
2018-10-15T10:15:17.940Z,25.62
2018-10-15T10:17:44.245Z,25.78
2018-10-15T10:20:10.163Z,26.07
2018-10-15T10:22:36.183Z,26.25
2018-10-15T10:25:03.597Z,26.35
2018-10-15T10:27:29.618Z,26.35
2018-10-15T10:29:55.902Z,26.62
2018-10-15T10:32:21.857Z,26.75
2018-10-15T10:34:47.907Z,26.79
2018-10-15T10:37:13.909Z,26.80
2018-10-15T10:39:39.919Z,26.55
2018-10-15T10:42:05.944Z,26.32
2018-10-15T10:44:31.945Z,26.23
2018-10-15T10:46:58.697Z,26.22
2018-10-15T10:49:24.711Z,26.34
2018-10-15T10:51:50.726Z,26.49
2018-10-15T10:54:16.853Z,26.48
2018-10-15T10:56:42.805Z,26.54
2018-10-15T10:59:08.811Z,26.56
2018-10-15T11:01:34.779Z,26.76
2018-10-15T11:04:00.770Z,26.81
2018-10-15T11:06:27.739Z,26.65
2018-10-15T11:08:53.723Z,26.48
2018-10-15T11:11:19.781Z,26.40
2018-10-15T11:13:45.773Z,26.39
2018-10-15T11:16:11.822Z,26.46
2018-10-15T11:18:38.008Z,26.34
2018-10-15T11:21:04.118Z,26.41
2018-10-15T11:23:30.057Z,26.15
2018-10-15T11:25:56.069Z,25.92
2018-10-15T11:28:22.518Z,25.90
2018-10-15T11:30:48.478Z,25.70
2018-10-15T11:33:14.469Z,25.68
2018-10-15T11:35:40.442Z,25.58
2018-10-15T11:38:06.462Z,25.80
2018-10-15T11:40:32.510Z,26.11
2018-10-15T11:42:58.626Z,26.34
2018-10-15T11:48:00.024Z,26.76
2018-10-15T11:50:26.053Z,26.86
2018-10-15T11:52:52.049Z,26.71
2018-10-15T11:55:18.719Z,26.52
2018-10-15T11:57:44.739Z,26.38
2018-10-15T12:00:10.739Z,26.47
2018-10-15T12:02:36.803Z,26.51
2018-10-15T12:05:02.805Z,26.64
2018-10-15T12:07:28.816Z,26.80
2018-10-15T12:09:54.923Z,26.98
2018-10-15T12:12:20.969Z,26.76
2018-10-15T12:14:47.020Z,26.57
2018-10-15T12:22:20.392Z,26.96
2018-10-15T12:29:49.197Z,26.94
2018-10-15T12:32:15.137Z,26.95
2018-10-15T12:34:41.150Z,26.93
2018-10-15T12:37:07.160Z,26.92
2018-10-15T12:39:33.131Z,27.07
2018-10-15T12:41:59.112Z,27.16
2018-10-15T12:44:25.071Z,27.22
2018-10-15T12:46:51.034Z,27.23
2018-10-15T12:49:17.006Z,27.21
2018-10-15T12:51:42.972Z,27.17
2018-10-15T12:54:08.959Z,27.12
2018-10-15T12:56:34.971Z,27.19
2018-10-15T12:59:02.783Z,27.03
2018-10-15T13:01:28.756Z,26.88
2018-10-15T13:03:58.106Z,26.77
2018-10-15T13:06:24.115Z,26.68
2018-10-15T13:08:51.211Z,26.68
2018-10-15T13:11:17.260Z,26.60
2018-10-15T13:13:43.313Z,26.31
2018-10-15T13:16:10.304Z,26.38
2018-10-15T13:18:36.410Z,26.28
2018-10-15T13:21:02.468Z,26.32
2018-10-15T13:23:29.765Z,26.18
2018-10-15T13:25:55.788Z,26.16
2018-10-15T13:28:21.801Z,26.21
2018-10-15T13:30:47.909Z,26.20
2018-10-15T13:33:13.939Z,26.30
2018-10-15T13:35:39.900Z,26.35
2018-10-15T13:38:05.939Z,26.34
2018-10-15T13:40:33.239Z,26.35
2018-10-15T13:42:59.277Z,26.37
2018-10-15T13:45:25.325Z,26.53
2018-10-15T13:47:51.366Z,26.65
2018-10-15T13:50:21.181Z,26.89
2018-10-15T13:52:47.251Z,26.94
2018-10-15T13:55:13.214Z,26.82
2018-10-15T13:57:39.225Z,26.90
2018-10-15T14:00:05.283Z,27.09
2018-10-15T14:02:31.383Z,27.19
2018-10-15T14:04:57.640Z,27.22
2018-10-15T14:07:23.690Z,27.25
2018-10-15T14:09:49.710Z,27.26
2018-10-15T14:14:51.945Z,27.18
2018-10-15T14:17:18.019Z,27.10
2018-10-15T14:19:44.078Z,27.08
2018-10-15T14:22:10.146Z,27.12
2018-10-15T14:24:36.894Z,27.19
2018-10-15T14:27:03.029Z,27.13
2018-10-15T14:29:29.090Z,27.19
2018-10-15T14:31:55.114Z,27.26
2018-10-15T14:34:22.012Z,27.33
2018-10-15T14:36:48.028Z,27.30
2018-10-15T14:39:14.100Z,27.30
2018-10-15T14:41:40.085Z,27.32
2018-10-15T14:44:06.959Z,27.35
2018-10-15T14:46:33.109Z,27.32
2018-10-15T14:48:59.187Z,27.29
2018-10-15T14:51:25.137Z,27.31
2018-10-15T14:53:51.227Z,27.36
2018-10-15T14:56:17.192Z,27.37
2018-10-15T14:58:43.162Z,27.36
2018-10-15T15:01:09.946Z,27.29
2018-10-15T15:03:37.058Z,27.17
2018-10-15T15:06:03.817Z,26.99
2018-10-15T15:08:29.803Z,26.85
2018-10-15T15:10:55.786Z,26.83
2018-10-15T15:13:21.925Z,26.74
2018-10-15T15:15:47.898Z,26.59
2018-10-15T15:18:14.791Z,26.57
2018-10-15T15:23:12.139Z,26.41
2018-10-15T15:25:38.211Z,26.46
2018-10-15T15:28:04.349Z,26.52
2018-10-15T15:30:30.301Z,26.67
2018-10-15T15:32:56.434Z,26.65
2018-10-15T15:35:22.412Z,26.62
2018-10-15T15:37:48.445Z,26.64
2018-10-15T15:40:15.178Z,26.73
2018-10-15T15:42:41.242Z,26.68
2018-10-15T15:45:07.327Z,26.63
2018-10-15T15:47:33.369Z,26.59
2018-10-15T15:49:59.403Z,26.57
2018-10-15T15:52:25.470Z,26.59
2018-10-15T16:07:29.394Z,26.09
2018-10-15T16:09:55.511Z,26.07
2018-10-15T16:17:24.234Z,26.28
2018-10-15T16:19:50.218Z,26.31
2018-10-15T16:22:16.245Z,26.26
2018-10-15T16:24:42.352Z,26.22
2018-10-15T16:27:08.346Z,26.16
2018-10-15T16:29:34.445Z,26.07
2018-10-15T16:32:00.442Z,26.11
2018-10-15T16:34:27.557Z,26.15
2018-10-15T16:36:53.616Z,26.21
2018-10-15T16:39:20.700Z,26.22
2018-10-15T16:41:46.678Z,26.21
2018-10-15T16:44:12.657Z,26.25
2018-10-15T16:46:38.630Z,26.33
2018-10-15T16:49:04.605Z,26.32
2018-10-15T16:51:30.782Z,26.26
2018-10-15T16:53:56.716Z,26.19
2018-10-15T16:56:22.668Z,26.03
2018-10-15T16:58:48.651Z,25.93
2018-10-15T17:01:14.659Z,25.84
2018-10-15T17:03:40.691Z,25.78
2018-10-15T17:06:06.724Z,25.76
2018-10-15T17:08:32.700Z,25.57
2018-10-15T17:10:58.714Z,25.52
2018-10-15T17:13:25.407Z,25.48
2018-10-15T17:15:51.535Z,25.39
2018-10-15T17:18:17.550Z,25.38
2018-10-15T17:20:43.565Z,25.28
2018-10-15T17:23:10.651Z,25.23
2018-10-15T17:25:36.714Z,25.10
2018-10-15T17:28:02.756Z,24.89
2018-10-15T17:30:28.798Z,24.74
2018-10-15T17:32:54.842Z,24.83
2018-10-15T17:35:20.877Z,24.95
2018-10-15T17:37:47.102Z,24.96
2018-10-15T17:40:15.011Z,24.92
2018-10-15T17:42:41.002Z,24.89
2018-10-15T17:45:06.970Z,24.70
2018-10-15T17:47:32.954Z,24.69
2018-10-15T17:49:58.927Z,24.60
2018-10-15T17:52:24.912Z,24.71
2018-10-15T17:54:50.944Z,24.83
2018-10-15T17:57:17.018Z,24.98
2018-10-15T17:59:42.974Z,25.04
2018-10-15T18:02:08.961Z,25.03
2018-10-15T18:04:35.947Z,25.07
2018-10-15T18:07:02.779Z,25.03
2018-10-15T18:09:29.150Z,25.10
2018-10-15T18:11:55.297Z,25.05
2018-10-15T18:14:21.389Z,25.05
2018-10-15T18:16:47.365Z,24.96
2018-10-15T18:19:13.359Z,24.92
2018-10-15T18:21:40.183Z,24.87
2018-10-15T18:24:06.325Z,24.81
2018-10-15T18:26:32.740Z,24.81
2018-10-15T18:28:58.870Z,24.80
2018-10-15T18:31:25.667Z,24.69
2018-10-15T18:33:51.703Z,24.65
2018-10-15T18:36:17.717Z,24.68
2018-10-15T18:38:43.737Z,24.82
2018-10-15T18:41:09.768Z,24.89
2018-10-15T18:43:35.788Z,24.91
2018-10-15T18:46:01.898Z,24.87
2018-10-15T18:48:27.905Z,24.65
2018-10-15T18:50:53.994Z,24.42
2018-10-15T18:53:20.150Z,24.36
2018-10-15T18:55:46.242Z,24.47
2018-10-15T18:58:12.277Z,24.50
2018-10-15T19:00:38.301Z,24.59
2018-10-15T19:03:04.291Z,24.70
2018-10-15T19:07:56.053Z,24.88
2018-10-15T19:10:22.160Z,24.97
2018-10-15T19:12:48.228Z,25.03
2018-10-15T19:15:14.329Z,25.05
2018-10-15T19:17:40.300Z,25.08
2018-10-15T19:20:06.333Z,25.17
2018-10-15T19:22:32.329Z,25.21
2018-10-15T19:24:58.401Z,25.20
2018-10-15T19:27:24.392Z,25.23
2018-10-15T19:29:50.384Z,25.12
2018-10-15T19:32:16.389Z,25.00
2018-10-15T19:34:42.385Z,24.82
2018-10-15T19:37:08.338Z,24.80
2018-10-15T19:39:34.381Z,24.80
2018-10-15T19:42:00.380Z,24.85
2018-10-15T19:46:59.636Z,25.13
2018-10-15T19:49:25.668Z,25.13
2018-10-15T19:51:51.687Z,25.08
2018-10-15T19:54:17.702Z,24.99
2018-10-15T19:56:43.848Z,25.00
2018-10-15T19:59:09.862Z,25.04
2018-10-15T20:01:35.857Z,25.03
2018-10-15T20:04:01.971Z,24.88
2018-10-15T20:06:27.846Z,24.83
2018-10-15T20:08:53.841Z,24.84
2018-10-15T20:11:19.838Z,24.66
2018-10-15T20:13:45.850Z,24.51
2018-10-15T20:16:11.835Z,24.38
2018-10-15T20:18:37.837Z,24.36
2018-10-15T20:21:03.845Z,24.20
2018-10-15T20:23:29.856Z,24.10
2018-10-15T20:25:56.900Z,24.06
2018-10-15T20:28:22.930Z,23.95
2018-10-15T20:30:48.886Z,23.82
2018-10-15T20:33:14.891Z,23.81
2018-10-15T20:35:40.903Z,23.79
2018-10-15T20:38:08.950Z,23.74
2018-10-15T20:43:07.323Z,23.51
2018-10-15T20:45:33.288Z,23.51
2018-10-15T20:47:59.358Z,23.40
2018-10-15T20:50:25.320Z,23.30
2018-10-15T20:52:51.273Z,23.33
2018-10-15T20:55:17.278Z,23.13
2018-10-15T20:57:43.348Z,22.95
2018-10-15T21:00:09.327Z,22.95
2018-10-15T21:02:35.430Z,22.94
2018-10-15T21:05:01.772Z,22.71
2018-10-15T21:07:27.859Z,22.65
2018-10-15T21:09:53.907Z,22.81
2018-10-15T21:12:19.911Z,22.73
2018-10-15T21:14:46.029Z,22.80
2018-10-15T21:17:12.045Z,22.81
2018-10-15T21:19:38.161Z,22.95
2018-10-15T21:22:04.293Z,22.98
2018-10-15T21:24:30.452Z,23.00
2018-10-15T21:26:56.589Z,22.98
2018-10-15T21:29:22.586Z,23.00
2018-10-15T21:31:48.739Z,23.06
2018-10-15T21:34:14.890Z,23.11
2018-10-15T21:36:41.107Z,23.18
2018-10-15T21:39:07.200Z,23.19
2018-10-15T21:41:33.332Z,23.16
2018-10-15T21:43:59.351Z,23.19
2018-10-15T21:46:25.464Z,23.25
2018-10-15T21:48:51.452Z,23.28
2018-10-15T21:51:17.456Z,23.40
2018-10-15T21:53:43.530Z,23.44
2018-10-15T21:56:09.569Z,23.44
2018-10-15T21:58:35.715Z,23.47
2018-10-15T22:01:01.847Z,23.44
2018-10-15T22:03:27.859Z,23.43
2018-10-15T22:05:53.958Z,23.35
2018-10-15T22:08:19.896Z,23.30
2018-10-15T22:10:45.952Z,23.26
2018-10-15T22:13:11.971Z,23.24
2018-10-15T22:15:37.984Z,23.18
2018-10-15T22:18:03.996Z,23.21
2018-10-15T22:20:30.002Z,23.05
2018-10-15T22:22:56.004Z,23.05
2018-10-15T22:25:21.999Z,23.01
2018-10-15T22:27:48.025Z,22.94
2018-10-15T22:30:14.058Z,22.97
2018-10-15T22:32:40.085Z,22.99
2018-10-15T22:35:06.073Z,23.01
2018-10-15T22:37:32.097Z,23.02
2018-10-15T22:39:58.145Z,22.98
2018-10-15T22:42:24.163Z,22.98
2018-10-15T22:44:50.201Z,22.93
2018-10-15T22:47:16.225Z,22.92
2018-10-15T22:49:42.260Z,22.96
2018-10-15T22:52:08.270Z,23.05
2018-10-15T22:54:34.286Z,23.07
2018-10-15T22:57:00.291Z,22.99
2018-10-15T22:59:26.351Z,22.82
2018-10-15T23:01:52.376Z,22.79
2018-10-15T23:04:18.398Z,22.89
2018-10-15T23:06:44.427Z,22.81
2018-10-15T23:09:10.457Z,22.80
2018-10-15T23:11:36.488Z,22.84
2018-10-15T23:14:02.538Z,22.94
2018-10-15T23:16:28.573Z,22.95
2018-10-15T23:18:54.601Z,22.96
2018-10-15T23:21:20.697Z,22.96
2018-10-15T23:23:46.710Z,22.93
2018-10-15T23:26:12.720Z,22.95
2018-10-15T23:28:38.746Z,22.85
2018-10-15T23:31:04.770Z,22.80
2018-10-15T23:33:30.793Z,22.85
2018-10-15T23:35:56.824Z,22.90
2018-10-15T23:38:22.832Z,22.88
2018-10-15T23:40:48.873Z,22.92
2018-10-15T23:43:14.884Z,22.87
2018-10-15T23:45:40.915Z,22.88
2018-10-15T23:48:06.938Z,22.91
2018-10-15T23:50:32.963Z,22.91
2018-10-15T23:52:58.985Z,23.04
2018-10-15T23:55:25.057Z,23.07
2018-10-15T23:57:51.078Z,23.05
